Time;durP1;ratioP1;P1;durP2;ratioP2;P2;SDS_P1;SDS_P2;PMS_P1;PMS_P2;Temp;Humidity;BMP_temperature;BMP_pressure;BME280_temperature;BME280_humidity;BME280_pressure;Samples;Min_cycle;Max_cycle;Signal;HPM_P1;HPM_P2
2023/07/20 00:02:13;;;;;;;0.10;0.10;;;14.30;99.90;;;;;;4971621;28;20208;-86
2023/07/20 00:04:39;;;;;;;0.10;0.10;;;14.20;99.90;;;;;;4988256;28;20189;-85
2023/07/20 00:07:05;;;;;;;0.10;0.10;;;14.20;99.90;;;;;;4992572;28;20212;-85
2023/07/20 00:09:31;;;;;;;0.10;0.10;;;14.10;99.90;;;;;;4972942;28;20720;-86
2023/07/20 00:11:56;;;;;;;0.10;0.10;;;14.10;99.90;;;;;;4975049;28;20192;-85
2023/07/20 00:14:22;;;;;;;0.10;0.10;;;13.90;99.90;;;;;;4972305;28;20197;-86
2023/07/20 00:16:55;;;;;;;0.10;0.10;;;13.90;99.90;;;;;;4981501;28;20193;-84
2023/07/20 00:19:21;;;;;;;0.10;0.10;;;14.00;99.90;;;;;;4986098;28;20203;-85
2023/07/20 00:21:47;;;;;;;0.10;0.10;;;13.80;99.90;;;;;;4972854;28;20499;-85
2023/07/20 00:24:12;;;;;;;0.10;0.10;;;13.80;99.90;;;;;;4990436;28;20495;-85
2023/07/20 00:26:38;;;;;;;0.10;0.10;;;13.70;99.90;;;;;;4972209;28;20212;-85
2023/07/20 00:29:03;;;;;;;0.10;0.10;;;13.70;99.90;;;;;;4985118;28;20713;-84
2023/07/20 00:31:29;;;;;;;0.10;0.10;;;13.50;99.90;;;;;;4964847;28;20671;-86
2023/07/20 00:33:54;;;;;;;0.10;0.10;;;13.60;99.90;;;;;;4972864;28;20275;-85
2023/07/20 00:36:20;;;;;;;0.10;0.10;;;13.70;99.90;;;;;;4981163;28;20224;-85
2023/07/20 00:38:45;;;;;;;0.10;0.10;;;13.80;99.90;;;;;;4989739;28;20209;-85
2023/07/20 00:41:11;;;;;;;0.10;0.10;;;13.80;99.90;;;;;;4989666;28;20263;-85
2023/07/20 00:43:36;;;;;;;0.10;0.10;;;13.70;99.90;;;;;;4990789;28;20240;-85
2023/07/20 00:46:02;;;;;;;0.10;0.10;;;13.70;99.90;;;;;;4969082;28;20193;-85
2023/07/20 00:48:29;;;;;;;0.10;0.10;;;13.70;99.90;;;;;;4987919;28;20193;-84
2023/07/20 00:50:55;;;;;;;0.10;0.10;;;13.60;99.90;;;;;;4989878;28;20447;-85
2023/07/20 00:53:21;;;;;;;0.10;0.10;;;13.60;99.90;;;;;;4972291;28;20452;-84
2023/07/20 00:55:47;;;;;;;0.10;0.10;;;13.70;99.90;;;;;;4986587;28;20232;-85
2023/07/20 00:58:12;;;;;;;0.10;0.10;;;13.60;99.90;;;;;;4985883;28;20481;-86
2023/07/20 01:00:38;;;;;;;0.10;0.10;;;13.60;99.90;;;;;;4989944;28;20190;-85
2023/07/20 01:03:03;;;;;;;0.10;0.10;;;13.50;99.90;;;;;;4991277;28;20229;-85
2023/07/20 01:05:58;;;;;;;0.10;0.10;;;13.50;99.90;;;;;;4971211;28;20607;-85
2023/07/20 01:08:47;;;;;;;0.10;0.10;;;13.60;99.90;;;;;;4989661;28;20212;-85
2023/07/20 01:11:19;;;;;;;0.10;0.10;;;13.50;99.90;;;;;;4986434;28;20449;-85
2023/07/20 01:13:45;;;;;;;0.10;0.10;;;13.50;99.90;;;;;;4989627;28;20531;-84
2023/07/20 01:16:11;;;;;;;0.10;0.10;;;13.40;99.90;;;;;;4971737;28;20817;-85
2023/07/20 01:18:37;;;;;;;0.10;0.10;;;13.40;99.90;;;;;;4989852;28;20444;-84
2023/07/20 01:21:08;;;;;;;0.10;0.10;;;13.50;99.90;;;;;;4971817;28;20645;-85
2023/07/20 01:24:07;;;;;;;0.10;0.10;;;13.50;99.90;;;;;;4969594;28;20492;-85
2023/07/20 01:26:54;;;;;;;0.10;0.10;;;13.30;99.90;;;;;;4991432;28;20420;-85
2023/07/20 01:29:34;;;;;;;0.10;0.10;;;13.40;99.90;;;;;;4991041;28;20524;-85
2023/07/20 01:32:03;;;;;;;0.10;0.10;;;13.30;99.90;;;;;;4987723;28;20479;-85
2023/07/20 01:34:29;;;;;;;0.10;0.10;;;13.20;99.90;;;;;;4990243;28;20440;-84
2023/07/20 01:36:55;;;;;;;0.10;0.10;;;13.30;99.90;;;;;;4988129;28;20443;-84
2023/07/20 01:39:22;;;;;;;0.10;0.10;;;13.30;99.90;;;;;;4990338;28;20470;-85
2023/07/20 01:41:47;;;;;;;0.10;0.10;;;13.20;99.90;;;;;;4990304;28;20487;-85
2023/07/20 01:44:13;;;;;;;0.10;0.10;;;13.30;99.90;;;;;;4990548;28;20484;-84
2023/07/20 01:46:38;;;;;;;0.10;0.10;;;13.20;99.90;;;;;;4988540;28;20188;-85
2023/07/20 01:49:04;;;;;;;0.20;0.20;;;13.20;99.90;;;;;;4986495;28;20189;-84
2023/07/20 01:51:29;;;;;;;0.10;0.10;;;13.10;99.90;;;;;;4973261;28;20272;-85
2023/07/20 01:53:55;;;;;;;0.10;0.10;;;13.10;99.90;;;;;;4990855;28;20258;-84
2023/07/20 01:56:21;;;;;;;0.10;0.10;;;13.20;99.90;;;;;;4988811;28;20177;-84
2023/07/20 01:58:46;;;;;;;0.10;0.10;;;13.10;99.90;;;;;;4990201;28;20189;-84
2023/07/20 02:01:12;;;;;;;0.10;0.10;;;13.10;99.90;;;;;;4989161;28;22457;-84
2023/07/20 02:03:37;;;;;;;0.10;0.10;;;13.10;99.90;;;;;;4988595;28;20216;-84
2023/07/20 02:06:03;;;;;;;0.10;0.10;;;13.20;99.90;;;;;;4987589;28;20268;-83
2023/07/20 02:08:28;;;;;;;0.10;0.10;;;13.10;99.90;;;;;;4972714;28;20197;-83
2023/07/20 02:10:54;;;;;;;0.20;0.20;;;13.10;99.90;;;;;;4985999;28;20544;-83
2023/07/20 02:13:19;;;;;;;0.10;0.10;;;13.10;99.90;;;;;;4971492;28;20193;-82
2023/07/20 02:15:47;;;;;;;0.10;0.10;;;13.00;99.90;;;;;;4970620;28;20173;-83
2023/07/20 02:18:12;;;;;;;0.10;0.10;;;13.10;99.90;;;;;;4987290;28;20180;-83
2023/07/20 02:20:38;;;;;;;0.10;0.10;;;13.00;99.90;;;;;;4987236;28;20818;-83
2023/07/20 02:23:03;;;;;;;0.10;0.10;;;13.10;99.90;;;;;;4967723;28;20363;-83
2023/07/20 02:25:29;;;;;;;0.10;0.10;;;13.00;99.90;;;;;;4984339;28;20268;-83
2023/07/20 02:27:56;;;;;;;0.10;0.10;;;13.00;99.90;;;;;;4982504;28;20581;-83
2023/07/20 02:30:22;;;;;;;0.10;0.10;;;13.10;99.90;;;;;;4970528;28;20317;-83
2023/07/20 02:32:48;;;;;;;0.20;0.20;;;13.00;99.90;;;;;;4987031;28;20456;-83
2023/07/20 02:35:17;;;;;;;0.20;0.20;;;13.00;99.90;;;;;;4987743;28;20182;-84
2023/07/20 02:37:42;;;;;;;0.10;0.10;;;13.10;99.90;;;;;;4988888;28;20421;-83
2023/07/20 02:40:08;;;;;;;0.10;0.10;;;13.10;99.90;;;;;;4989352;28;20856;-84
2023/07/20 02:42:35;;;;;;;0.10;0.10;;;13.10;99.90;;;;;;4989011;28;20196;-83
2023/07/20 02:45:01;;;;;;;0.20;0.20;;;13.20;99.90;;;;;;4967566;28;20464;-83
2023/07/20 02:47:26;;;;;;;0.10;0.10;;;13.20;99.90;;;;;;4989795;28;20511;-84
2023/07/20 02:49:52;;;;;;;0.10;0.10;;;13.20;99.90;;;;;;4985264;28;20465;-83
2023/07/20 02:52:17;;;;;;;0.10;0.10;;;13.10;99.90;;;;;;4984890;28;20273;-84
2023/07/20 02:54:43;;;;;;;0.10;0.10;;;13.10;99.90;;;;;;4986796;28;20189;-84
2023/07/20 02:57:08;;;;;;;0.20;0.20;;;13.00;99.90;;;;;;4989617;28;20193;-84
2023/07/20 02:59:34;;;;;;;0.10;0.10;;;13.00;99.90;;;;;;4988441;28;20280;-83
2023/07/20 03:01:59;;;;;;;0.13;0.13;;;13.00;99.90;;;;;;4987250;28;20556;-84
2023/07/20 03:04:28;;;;;;;0.10;0.10;;;13.00;99.90;;;;;;4979873;28;20688;-83
2023/07/20 03:06:54;;;;;;;0.10;0.10;;;12.90;99.90;;;;;;4989734;28;20240;-83
2023/07/20 03:09:19;;;;;;;0.10;0.10;;;12.80;99.90;;;;;;4987169;28;20479;-83
2023/07/20 03:11:45;;;;;;;0.10;0.10;;;12.70;99.90;;;;;;4991021;28;20279;-83
2023/07/20 03:14:10;;;;;;;0.10;0.10;;;12.80;99.90;;;;;;4976683;28;20181;-83
2023/07/20 03:16:36;;;;;;;0.10;0.10;;;12.80;99.90;;;;;;4993074;28;20661;-83
2023/07/20 03:19:02;;;;;;;0.10;0.10;;;12.80;99.90;;;;;;4988852;28;20255;-84
2023/07/20 03:21:27;;;;;;;0.10;0.10;;;12.80;99.90;;;;;;4984281;28;20204;-84
2023/07/20 03:23:53;;;;;;;0.10;0.10;;;12.90;99.90;;;;;;4993305;28;20979;-83
2023/07/20 03:26:19;;;;;;;0.10;0.10;;;12.90;99.90;;;;;;4983882;28;20190;-83
2023/07/20 03:28:44;;;;;;;0.10;0.10;;;12.90;99.90;;;;;;4974864;28;20282;-83
2023/07/20 03:31:10;;;;;;;0.10;0.10;;;13.00;99.90;;;;;;4989179;28;20458;-82
2023/07/20 03:33:35;;;;;;;0.10;0.10;;;13.00;99.90;;;;;;4990578;28;20709;-83
2023/07/20 03:36:01;;;;;;;0.10;0.10;;;13.10;99.90;;;;;;4985644;28;20193;-83
2023/07/20 03:38:27;;;;;;;0.13;0.13;;;13.10;99.90;;;;;;4969621;28;20235;-83
2023/07/20 03:40:55;;;;;;;0.10;0.10;;;13.20;99.90;;;;;;4989481;28;20645;-83
2023/07/20 03:43:21;;;;;;;0.10;0.10;;;13.20;99.90;;;;;;4993075;28;20496;-83
2023/07/20 03:45:48;;;;;;;0.10;0.10;;;13.20;99.90;;;;;;4976542;28;20472;-83
2023/07/20 03:48:15;;;;;;;0.10;0.10;;;13.20;99.90;;;;;;4975972;28;20530;-83
2023/07/20 03:50:41;;;;;;;0.10;0.10;;;13.20;99.90;;;;;;4976643;28;20794;-83
2023/07/20 03:53:06;;;;;;;0.10;0.10;;;13.20;99.90;;;;;;4991664;28;20440;-83
2023/07/20 03:55:32;;;;;;;0.20;0.20;;;13.20;99.90;;;;;;4975697;28;20183;-83
2023/07/20 03:57:58;;;;;;;0.10;0.10;;;13.20;99.90;;;;;;4984033;28;20178;-84
2023/07/20 04:00:23;;;;;;;0.10;0.10;;;13.10;99.90;;;;;;4983103;28;20220;-83
2023/07/20 04:02:49;;;;;;;0.10;0.10;;;13.10;99.90;;;;;;4975619;28;20296;-83
2023/07/20 04:05:15;;;;;;;0.20;0.20;;;13.10;99.90;;;;;;4974595;28;20316;-83
2023/07/20 04:07:40;;;;;;;0.10;0.10;;;13.10;99.90;;;;;;4990144;28;20193;-83
2023/07/20 04:10:07;;;;;;;0.20;0.20;;;13.10;99.90;;;;;;4989182;28;20196;-84
2023/07/20 04:12:32;;;;;;;0.10;0.10;;;13.00;99.90;;;;;;4991813;28;20939;-83
2023/07/20 04:14:58;;;;;;;0.10;0.10;;;13.10;99.90;;;;;;4991395;28;20455;-84
2023/07/20 04:17:23;;;;;;;0.20;0.20;;;13.10;99.90;;;;;;4971299;28;20193;-83
2023/07/20 04:19:49;;;;;;;0.10;0.10;;;13.00;99.90;;;;;;4974926;28;20657;-83
2023/07/20 04:22:17;;;;;;;0.10;0.10;;;12.90;99.90;;;;;;4983602;28;20236;-83
2023/07/20 04:24:43;;;;;;;0.20;0.20;;;13.00;99.90;;;;;;4989146;28;20783;-83
2023/07/20 04:27:08;;;;;;;0.17;0.17;;;13.00;99.90;;;;;;4983357;28;20472;-82
2023/07/20 04:29:34;;;;;;;0.10;0.10;;;13.00;99.90;;;;;;4988977;28;20255;-84
2023/07/20 04:31:59;;;;;;;0.10;0.10;;;13.00;99.90;;;;;;4986090;28;20262;-83
2023/07/20 04:34:25;;;;;;;0.20;0.20;;;12.90;99.90;;;;;;4990407;28;20238;-83
2023/07/20 04:36:50;;;;;;;0.10;0.10;;;13.00;99.90;;;;;;4985190;28;20200;-83
2023/07/20 04:39:16;;;;;;;0.10;0.10;;;13.10;99.90;;;;;;4983575;28;20193;-83
2023/07/20 04:41:41;;;;;;;0.10;0.10;;;13.10;99.90;;;;;;4983168;28;20200;-83
2023/07/20 04:44:07;;;;;;;0.20;0.20;;;13.10;99.90;;;;;;4981334;28;20803;-83
2023/07/20 04:46:32;;;;;;;0.10;0.10;;;13.10;99.90;;;;;;4982969;28;20202;-82
2023/07/20 04:48:58;;;;;;;0.20;0.20;;;13.20;99.90;;;;;;4976394;28;21037;-83
2023/07/20 04:51:23;;;;;;;0.10;0.10;;;13.30;99.90;;;;;;4980670;28;20189;-83
2023/07/20 04:53:49;;;;;;;0.10;0.10;;;13.50;99.90;;;;;;4985265;28;20193;-83
2023/07/20 04:56:15;;;;;;;0.10;0.10;;;13.70;99.90;;;;;;4982309;28;20704;-84
2023/07/20 04:58:40;;;;;;;0.10;0.10;;;13.80;99.90;;;;;;4967641;28;20512;-83
2023/07/20 05:01:06;;;;;;;0.10;0.10;;;14.00;99.90;;;;;;4964036;28;20185;-83
2023/07/20 05:03:31;;;;;;;0.10;0.10;;;14.00;99.90;;;;;;4982530;28;20213;-83
2023/07/20 05:05:57;;;;;;;0.10;0.10;;;14.00;99.90;;;;;;4968092;28;20220;-83
2023/07/20 05:08:23;;;;;;;0.10;0.10;;;14.00;99.90;;;;;;4986898;28;20673;-83
2023/07/20 05:10:48;;;;;;;0.10;0.10;;;14.10;99.90;;;;;;4983390;28;20216;-83
2023/07/20 05:13:14;;;;;;;0.10;0.10;;;14.20;99.90;;;;;;4982047;28;20203;-83
2023/07/20 05:15:40;;;;;;;0.10;0.10;;;14.30;99.90;;;;;;4987457;28;20189;-84
2023/07/20 05:18:05;;;;;;;0.10;0.10;;;14.40;99.90;;;;;;4988730;28;20185;-83
2023/07/20 05:20:33;;;;;;;0.10;0.10;;;14.40;99.90;;;;;;4986257;28;20193;-85
2023/07/20 05:22:59;;;;;;;0.10;0.10;;;14.40;99.90;;;;;;4987933;28;20706;-84
2023/07/20 05:25:24;;;;;;;0.10;0.10;;;14.30;99.90;;;;;;4990335;28;20487;-84
2023/07/20 05:27:50;;;;;;;0.10;0.10;;;14.30;99.90;;;;;;4989936;28;20432;-83
2023/07/20 05:30:16;;;;;;;0.10;0.10;;;14.40;99.90;;;;;;4970934;28;20193;-83
2023/07/20 05:32:45;;;;;;;0.10;0.10;;;14.40;99.90;;;;;;4988672;28;20463;-83
2023/07/20 05:35:11;;;;;;;0.10;0.10;;;14.60;99.90;;;;;;4969827;28;20448;-85
2023/07/20 05:37:38;;;;;;;0.10;0.10;;;14.70;99.90;;;;;;4989697;28;21006;-84
2023/07/20 05:40:04;;;;;;;0.10;0.10;;;14.70;99.90;;;;;;4989145;28;20531;-83
2023/07/20 05:42:29;;;;;;;0.10;0.10;;;14.70;99.90;;;;;;4977178;28;20467;-85
2023/07/20 05:44:55;;;;;;;0.10;0.10;;;14.80;99.90;;;;;;4968950;28;20448;-84
2023/07/20 05:47:20;;;;;;;0.10;0.10;;;14.60;99.90;;;;;;4983862;28;20209;-84
2023/07/20 05:49:46;;;;;;;0.10;0.10;;;14.50;99.90;;;;;;4987223;28;20185;-84
2023/07/20 05:52:13;;;;;;;0.10;0.10;;;14.60;99.90;;;;;;4985407;28;20204;-84
2023/07/20 05:54:38;;;;;;;0.10;0.10;;;14.70;99.90;;;;;;4973398;28;20192;-84
2023/07/20 05:57:04;;;;;;;0.10;0.10;;;14.80;99.90;;;;;;4975733;28;20499;-85
2023/07/20 05:59:30;;;;;;;0.10;0.10;;;14.80;99.90;;;;;;4984796;28;20268;-84
2023/07/20 06:01:55;;;;;;;0.10;0.10;;;14.90;99.90;;;;;;4969962;28;20519;-83
2023/07/20 06:04:21;;;;;;;0.10;0.10;;;15.10;99.90;;;;;;4984203;28;20247;-85
2023/07/20 06:06:47;;;;;;;0.10;0.10;;;15.20;99.90;;;;;;4984400;28;20676;-84
2023/07/20 06:09:13;;;;;;;0.10;0.10;;;15.30;99.90;;;;;;4985660;28;20308;-84
2023/07/20 06:11:39;;;;;;;0.10;0.10;;;15.30;99.90;;;;;;4978838;28;20480;-83
2023/07/20 06:14:05;;;;;;;0.10;0.10;;;15.30;99.90;;;;;;4980231;28;20193;-84
2023/07/20 06:16:30;;;;;;;0.10;0.10;;;15.40;99.90;;;;;;4978489;28;20200;-85
2023/07/20 06:18:56;;;;;;;0.10;0.10;;;15.50;99.90;;;;;;4961674;28;20990;-84
2023/07/20 06:21:22;;;;;;;0.10;0.10;;;15.40;99.90;;;;;;4977570;28;20421;-83
2023/07/20 06:23:47;;;;;;;0.10;0.10;;;15.50;99.90;;;;;;4978454;28;20492;-82
2023/07/20 06:26:13;;;;;;;0.10;0.10;;;15.50;99.90;;;;;;4988796;28;20231;-82
2023/07/20 06:28:38;;;;;;;0.10;0.10;;;15.70;99.90;;;;;;4982589;28;20650;-83
2023/07/20 06:31:04;;;;;;;0.10;0.10;;;15.80;99.90;;;;;;4987551;28;20190;-83
2023/07/20 06:33:29;;;;;;;0.10;0.10;;;15.80;99.90;;;;;;4986233;28;20211;-83
2023/07/20 06:35:56;;;;;;;0.10;0.10;;;15.90;99.90;;;;;;4988974;28;20603;-83
2023/07/20 06:38:23;;;;;;;0.10;0.10;;;16.00;99.90;;;;;;4964682;28;20267;-82
2023/07/20 06:40:49;;;;;;;0.10;0.10;;;16.10;99.90;;;;;;4984713;28;20444;-83
2023/07/20 06:43:15;;;;;;;0.10;0.10;;;16.20;99.90;;;;;;4982524;28;20556;-84
2023/07/20 06:45:41;;;;;;;0.10;0.10;;;16.20;99.90;;;;;;4984427;28;20495;-84
2023/07/20 06:48:07;;;;;;;0.10;0.10;;;16.20;99.90;;;;;;4991245;28;20505;-84
2023/07/20 06:50:33;;;;;;;0.10;0.10;;;16.30;99.90;;;;;;4989225;28;20459;-83
2023/07/20 06:52:59;;;;;;;0.10;0.10;;;16.40;99.90;;;;;;4989116;28;20197;-83
2023/07/20 06:55:25;;;;;;;0.10;0.10;;;16.30;99.90;;;;;;4984916;28;20456;-83
2023/07/20 06:57:51;;;;;;;0.10;0.10;;;16.60;99.90;;;;;;4992478;28;20440;-83
2023/07/20 07:00:17;;;;;;;0.10;0.10;;;16.80;99.90;;;;;;4973908;28;20455;-83
2023/07/20 07:02:42;;;;;;;0.10;0.10;;;16.90;99.90;;;;;;4992482;28;20608;-84
2023/07/20 07:05:08;;;;;;;0.10;0.10;;;17.20;99.90;;;;;;4991495;28;20207;-83
2023/07/20 07:07:34;;;;;;;0.10;0.10;;;17.50;99.90;;;;;;4985611;28;20202;-83
2023/07/20 07:10:00;;;;;;;0.10;0.10;;;17.60;99.90;;;;;;4987735;28;20181;-84
2023/07/20 07:12:26;;;;;;;0.10;0.10;;;17.60;99.90;;;;;;4981205;28;20930;-85
2023/07/20 07:14:52;;;;;;;0.10;0.10;;;17.40;99.90;;;;;;4987566;28;20448;-85
2023/07/20 07:17:18;;;;;;;0.10;0.10;;;17.20;99.90;;;;;;4991459;28;20192;-85
2023/07/20 07:19:44;;;;;;;0.10;0.10;;;16.80;99.90;;;;;;4994400;28;20435;-84
2023/07/20 07:22:09;;;;;;;0.10;0.10;;;16.70;99.90;;;;;;4991231;28;20189;-83
2023/07/20 07:24:35;;;;;;;0.10;0.10;;;16.60;99.90;;;;;;4994315;28;20472;-85
2023/07/20 07:27:02;;;;;;;0.10;0.10;;;16.50;99.90;;;;;;4994653;28;20306;-84
2023/07/20 07:29:27;;;;;;;0.10;0.10;;;16.10;99.90;;;;;;4994250;28;20424;-84
2023/07/20 07:31:53;;;;;;;0.10;0.10;;;15.90;99.90;;;;;;4991194;28;20450;-84
2023/07/20 07:34:18;;;;;;;0.10;0.10;;;16.00;99.90;;;;;;4994692;28;20197;-84
2023/07/20 07:36:44;;;;;;;0.10;0.10;;;16.30;99.90;;;;;;4992663;28;20550;-84
2023/07/20 07:39:10;;;;;;;0.10;0.10;;;16.70;99.90;;;;;;4992419;28;20232;-85
2023/07/20 07:41:36;;;;;;;0.10;0.10;;;17.20;99.90;;;;;;4988440;28;20443;-86
2023/07/20 07:44:01;;;;;;;0.10;0.10;;;17.20;99.90;;;;;;4989261;28;20369;-84
2023/07/20 07:46:27;;;;;;;0.10;0.10;;;17.30;99.90;;;;;;4988600;28;20193;-85
2023/07/20 07:48:53;;;;;;;0.10;0.10;;;17.30;99.90;;;;;;4991043;28;20266;-83
2023/07/20 07:51:18;;;;;;;0.10;0.10;;;17.10;99.90;;;;;;4992098;28;20200;-85
2023/07/20 07:53:45;;;;;;;0.10;0.10;;;17.40;99.90;;;;;;4994207;28;20177;-83
2023/07/20 07:56:11;;;;;;;0.10;0.10;;;17.50;99.90;;;;;;4972883;28;20480;-83
2023/07/20 07:58:37;;;;;;;0.10;0.10;;;17.30;99.90;;;;;;4992457;28;20490;-84
2023/07/20 08:01:02;;;;;;;0.10;0.10;;;17.10;99.90;;;;;;4991391;28;20185;-84
2023/07/20 08:03:28;;;;;;;0.10;0.10;;;17.10;99.90;;;;;;4990620;28;20495;-85
2023/07/20 08:05:57;;;;;;;0.10;0.10;;;17.50;99.90;;;;;;4973682;28;20181;-83
2023/07/20 08:08:22;;;;;;;0.10;0.10;;;17.60;99.90;;;;;;4969995;28;20541;-84
2023/07/20 08:10:48;;;;;;;0.10;0.10;;;18.20;99.90;;;;;;4993014;28;20646;-84
2023/07/20 08:13:14;;;;;;;0.10;0.10;;;18.60;99.90;;;;;;4980629;28;20653;-85
2023/07/20 08:15:41;;;;;;;0.10;0.10;;;18.30;99.90;;;;;;4984597;28;20191;-84
2023/07/20 08:18:07;;;;;;;0.10;0.10;;;17.90;99.90;;;;;;4976230;28;20181;-84
2023/07/20 08:20:35;;;;;;;0.10;0.10;;;17.40;99.90;;;;;;4986520;28;20537;-83
2023/07/20 08:23:01;;;;;;;0.10;0.10;;;16.80;99.90;;;;;;4984021;28;20464;-83
2023/07/20 08:25:26;;;;;;;0.10;0.10;;;16.60;99.90;;;;;;4990956;28;21407;-82
2023/07/20 08:27:52;;;;;;;0.10;0.10;;;16.70;99.90;;;;;;4985692;28;20748;-83
2023/07/20 08:30:21;;;;;;;0.10;0.10;;;17.50;99.90;;;;;;4986309;28;20272;-84
2023/07/20 08:32:47;;;;;;;0.10;0.10;;;18.10;99.90;;;;;;4989105;28;20216;-84
2023/07/20 08:35:12;;;;;;;0.10;0.10;;;18.00;99.90;;;;;;4975109;28;20527;-84
2023/07/20 08:37:38;;;;;;;0.10;0.10;;;17.60;99.90;;;;;;4966544;28;20447;-84
2023/07/20 08:40:04;;;;;;;0.10;0.10;;;17.10;99.90;;;;;;4987270;28;22240;-84
2023/07/20 08:42:30;;;;;;;0.10;0.10;;;17.00;99.90;;;;;;4979928;28;20197;-83
2023/07/20 08:44:57;;;;;;;0.10;0.10;;;16.60;99.90;;;;;;4987715;28;20192;-84
2023/07/20 08:47:25;;;;;;;0.10;0.10;;;16.70;99.90;;;;;;4983053;28;20603;-85
2023/07/20 08:49:51;;;;;;;0.10;0.10;;;17.10;99.90;;;;;;4973262;28;20453;-85
2023/07/20 08:52:17;;;;;;;0.10;0.10;;;17.80;99.90;;;;;;4986101;28;20432;-84
2023/07/20 08:54:42;;;;;;;0.10;0.10;;;18.80;99.90;;;;;;4981763;28;20459;-86
2023/07/20 08:57:12;;;;;;;0.10;0.10;;;18.70;99.90;;;;;;4991971;28;20185;-85
2023/07/20 08:59:38;;;;;;;0.10;0.10;;;18.50;99.90;;;;;;4989956;28;20247;-85
2023/07/20 09:02:05;;;;;;;0.10;0.10;;;18.20;99.90;;;;;;4985785;28;20816;-85
2023/07/20 09:04:30;;;;;;;0.10;0.10;;;18.50;99.90;;;;;;4980513;28;20980;-84
2023/07/20 09:06:57;;;;;;;0.10;0.10;;;18.80;99.90;;;;;;4982395;28;20436;-84
2023/07/20 09:09:22;;;;;;;0.10;0.10;;;19.20;99.90;;;;;;4966222;28;20193;-84
2023/07/20 09:11:51;;;;;;;0.10;0.10;;;19.90;99.90;;;;;;4982881;28;20447;-83
2023/07/20 09:14:17;;;;;;;0.10;0.00;;;20.00;99.90;;;;;;4968323;28;20605;-86
2023/07/20 09:16:55;;;;;;;0.10;0.10;;;20.10;99.90;;;;;;4970722;28;20523;-85
2023/07/20 09:19:22;;;;;;;0.10;0.00;;;20.80;99.90;;;;;;4979217;28;20201;-86
2023/07/20 09:21:51;;;;;;;0.10;0.00;;;20.40;99.90;;;;;;4987454;28;20444;-85
2023/07/20 09:24:21;;;;;;;0.10;0.00;;;20.30;99.90;;;;;;4984963;28;20498;-85
2023/07/20 09:26:48;;;;;;;0.10;0.00;;;19.90;99.90;;;;;;4983978;28;20472;-85
2023/07/20 09:29:17;;;;;;;0.10;0.10;;;19.90;99.90;;;;;;4982925;28;20443;-85
2023/07/20 09:31:43;;;;;;;0.10;0.00;;;19.30;99.90;;;;;;4987569;28;20819;-85
2023/07/20 09:34:09;;;;;;;0.10;0.00;;;19.00;99.90;;;;;;4970444;28;20541;-85
2023/07/20 09:36:36;;;;;;;0.10;0.00;;;18.80;99.90;;;;;;4966834;28;20459;-84
2023/07/20 09:39:03;;;;;;;0.10;0.10;;;18.60;99.90;;;;;;4982120;28;20193;-85
2023/07/20 09:41:29;;;;;;;0.10;0.10;;;18.10;99.90;;;;;;4981548;28;20449;-84
2023/07/20 09:43:55;;;;;;;0.10;0.10;;;19.00;99.90;;;;;;4978512;28;21019;-85
2023/07/20 09:46:21;;;;;;;0.10;0.10;;;19.90;99.90;;;;;;4986840;28;20193;-85
2023/07/20 09:48:54;;;;;;;0.10;0.00;;;19.60;99.90;;;;;;4988255;28;20673;-85
2023/07/20 09:51:24;;;;;;;0.10;0.00;;;19.40;99.90;;;;;;4989447;28;20243;-85
2023/07/20 09:53:53;;;;;;;0.10;0.10;;;19.00;99.90;;;;;;4971807;28;20878;-84
2023/07/20 09:56:22;;;;;;;0.10;0.10;;;19.10;99.90;;;;;;4992447;28;20448;-86
2023/07/20 09:58:48;;;;;;;0.10;0.10;;;19.10;99.90;;;;;;4970305;28;20452;-86
2023/07/20 10:01:21;;;;;;;0.10;0.10;;;19.30;99.90;;;;;;4990050;28;20456;-85
2023/07/20 10:03:48;;;;;;;0.10;0.00;;;20.00;99.90;;;;;;4991369;28;20843;-86
2023/07/20 10:06:19;;;;;;;0.10;0.00;;;21.10;99.90;;;;;;4986680;28;20447;-85
2023/07/20 10:08:47;;;;;;;0.10;0.10;;;21.40;99.90;;;;;;4984093;28;20519;-86
2023/07/20 10:11:15;;;;;;;0.10;0.00;;;21.00;99.90;;;;;;4987207;28;20507;-86
2023/07/20 10:13:43;;;;;;;0.10;0.00;;;21.20;99.90;;;;;;4986300;28;20451;-87
2023/07/20 10:16:19;;;;;;;0.10;0.10;;;20.70;99.90;;;;;;4980229;28;20505;-87
2023/07/20 10:18:55;;;;;;;0.10;0.00;;;20.80;99.90;;;;;;4987089;28;20453;-86
2023/07/20 10:21:22;;;;;;;0.10;0.00;;;21.20;99.90;;;;;;4988904;28;20443;-86
2023/07/20 10:23:48;;;;;;;0.10;0.00;;;21.60;99.90;;;;;;4975091;28;20495;-87
2023/07/20 10:26:14;;;;;;;0.10;0.10;;;21.40;99.90;;;;;;4969053;28;20448;-85
2023/07/20 10:28:40;;;;;;;0.10;0.00;;;19.40;99.90;;;;;;4966330;28;20433;-83
2023/07/20 10:31:09;;;;;;;0.10;0.00;;;18.30;99.90;;;;;;4981640;28;20243;-82
2023/07/20 10:33:36;;;;;;;0.10;0.10;;;17.70;99.90;;;;;;4984487;28;20444;-85
2023/07/20 10:36:05;;;;;;;0.10;0.10;;;16.60;99.90;;;;;;4987888;28;20582;-83
2023/07/20 10:38:43;;;;;;;0.10;0.10;;;16.70;99.90;;;;;;4984632;28;20956;-83
2023/07/20 10:41:35;;;;;;;0.10;0.10;;;16.70;99.90;;;;;;4986864;28;20457;-84
2023/07/20 10:44:02;;;;;;;0.10;0.10;;;17.00;99.90;;;;;;4986442;28;20848;-86
2023/07/20 10:47:08;;;;;;;0.10;0.00;;;17.90;99.90;;;;;;4986325;28;20456;-85
2023/07/20 10:49:35;;;;;;;0.10;0.10;;;19.20;99.90;;;;;;4977310;28;20452;-85
2023/07/20 10:52:04;;;;;;;0.10;0.10;;;19.70;99.90;;;;;;4990012;28;20440;-85
2023/07/20 10:54:30;;;;;;;0.10;0.00;;;20.40;99.90;;;;;;4987831;28;20443;-85
2023/07/20 10:56:58;;;;;;;0.10;0.00;;;21.60;99.90;;;;;;4985507;28;20520;-86
2023/07/20 10:59:23;;;;;;;0.10;0.00;;;22.40;99.90;;;;;;4984103;28;20197;-90
2023/07/20 11:01:50;;;;;;;0.10;0.00;;;22.70;99.90;;;;;;4984132;28;20452;-85
2023/07/20 11:04:18;;;;;;;0.10;0.10;;;21.80;99.90;;;;;;4985567;28;20229;-87
2023/07/20 11:06:44;;;;;;;0.10;0.00;;;20.90;99.90;;;;;;4988088;28;20786;-85
2023/07/20 11:09:14;;;;;;;0.10;0.00;;;19.60;99.90;;;;;;4983932;28;20471;-86
2023/07/20 11:11:47;;;;;;;0.10;0.00;;;19.40;99.90;;;;;;4986165;28;20803;-86
2023/07/20 11:14:24;;;;;;;0.10;0.00;;;20.00;99.90;;;;;;4987947;28;20944;-86
2023/07/20 11:16:51;;;;;;;0.10;0.00;;;21.60;99.90;;;;;;4987902;28;20848;-85
2023/07/20 11:19:25;;;;;;;0.10;0.00;;;22.50;99.90;;;;;;4985692;28;20457;-85
2023/07/20 11:21:57;;;;;;;0.10;0.00;;;23.00;99.90;;;;;;4981788;28;20531;-86
2023/07/20 11:24:23;;;;;;;0.10;0.00;;;23.50;99.90;;;;;;4970187;28;20534;-85
2023/07/20 11:26:53;;;;;;;0.10;0.00;;;23.70;99.90;;;;;;4987230;28;20855;-87
2023/07/20 11:29:21;;;;;;;0.10;0.00;;;24.40;99.90;;;;;;4978876;28;20225;-85
2023/07/20 11:31:47;;;;;;;0.10;0.00;;;24.40;99.90;;;;;;4989242;28;20843;-85
2023/07/20 11:34:18;;;;;;;0.10;0.00;;;25.20;99.90;;;;;;4983258;28;20448;-86
2023/07/20 11:36:45;;;;;;;0.10;0.00;;;25.40;99.90;;;;;;4991667;28;20452;-84
2023/07/20 11:39:12;;;;;;;0.10;0.00;;;24.80;99.90;;;;;;4992081;28;20450;-86
2023/07/20 11:41:39;;;;;;;0.10;0.00;;;25.70;99.90;;;;;;4992184;28;20460;-87
2023/07/20 11:44:12;;;;;;;0.10;0.00;;;26.10;99.90;;;;;;4993773;28;20890;-86
2023/07/20 11:46:39;;;;;;;0.10;0.00;;;26.00;99.90;;;;;;4990364;28;20459;-86
2023/07/20 11:49:05;;;;;;;0.10;0.00;;;26.90;99.90;;;;;;4958754;28;20510;-85
2023/07/20 11:51:32;;;;;;;0.10;0.00;;;25.30;99.90;;;;;;4986961;28;20448;-85
2023/07/20 11:53:58;;;;;;;0.10;0.00;;;25.40;99.90;;;;;;4993402;28;20444;-86
2023/07/20 11:56:25;;;;;;;0.10;0.00;;;25.00;99.90;;;;;;4993876;28;20471;-85
2023/07/20 11:58:56;;;;;;;0.10;0.00;;;25.20;99.90;;;;;;4992002;28;20451;-86
2023/07/20 12:01:23;;;;;;;0.10;0.00;;;24.80;99.90;;;;;;4993456;28;20499;-86
2023/07/20 12:03:50;;;;;;;0.10;0.00;;;24.80;99.90;;;;;;4975704;28;20864;-86
2023/07/20 12:06:16;;;;;;;0.10;0.00;;;23.20;99.90;;;;;;4994586;28;20425;-87
2023/07/20 12:08:43;;;;;;;0.10;0.00;;;23.00;99.90;;;;;;4991915;28;20468;-87
2023/07/20 12:11:08;;;;;;;0.10;0.00;;;22.00;99.90;;;;;;4994529;28;20185;-87
2023/07/20 12:13:39;;;;;;;0.10;0.00;;;21.60;99.90;;;;;;4993787;28;20790;-85
2023/07/20 12:16:17;;;;;;;0.10;0.00;;;22.90;99.90;;;;;;4992404;28;20232;-86
2023/07/20 12:18:43;;;;;;;0.10;0.00;;;24.50;99.90;;;;;;4993028;28;21085;-85
2023/07/20 12:21:13;;;;;;;0.10;0.00;;;24.90;99.90;;;;;;4992227;28;20448;-86
2023/07/20 12:23:40;;;;;;;0.10;0.00;;;25.20;99.90;;;;;;4992879;28;20968;-87
2023/07/20 12:26:09;;;;;;;0.10;0.00;;;25.60;99.90;;;;;;4994027;28;20904;-84
2023/07/20 12:28:41;;;;;;;0.10;0.00;;;25.20;99.90;;;;;;4993170;28;20444;-84
2023/07/20 12:31:09;;;;;;;0.10;0.00;;;26.20;99.90;;;;;;4992397;28;20932;-86
2023/07/20 12:33:35;;;;;;;0.10;0.00;;;25.00;99.90;;;;;;4984366;28;21010;-83
2023/07/20 12:36:01;;;;;;;0.10;0.00;;;23.70;99.90;;;;;;4990693;28;20456;-85
2023/07/20 12:38:27;;;;;;;0.10;0.00;;;23.40;99.90;;;;;;4990976;28;20641;-84
2023/07/20 12:40:56;;;;;;;0.10;0.00;;;23.00;99.90;;;;;;4960881;28;20445;-84
2023/07/20 12:43:22;;;;;;;0.10;0.00;;;22.60;99.90;;;;;;4986663;28;20569;-85
2023/07/20 12:45:48;;;;;;;0.10;0.00;;;22.00;99.90;;;;;;4972958;28;21049;-84
2023/07/20 12:48:13;;;;;;;0.10;0.00;;;21.70;99.90;;;;;;4967101;28;20207;-85